createdAt,value
2023-12-23T00:01:22.281Z,63.54
2023-12-23T00:03:50.365Z,63.51
2023-12-23T00:06:18.486Z,63.39
2023-12-23T00:08:46.502Z,63.31
2023-12-23T00:11:14.527Z,63.30
2023-12-23T00:13:42.521Z,63.38
2023-12-23T00:16:10.497Z,63.45
2023-12-23T00:18:38.637Z,63.20
2023-12-23T00:21:07.921Z,62.95
2023-12-23T00:23:36.014Z,62.96
2023-12-23T00:26:04.588Z,63.25
2023-12-23T00:28:32.516Z,63.11
2023-12-23T00:31:00.674Z,63.08
2023-12-23T00:33:28.724Z,62.69
2023-12-23T00:35:56.710Z,62.88
2023-12-23T00:38:24.769Z,62.75
2023-12-23T00:40:52.881Z,62.83
2023-12-23T00:43:20.923Z,62.54
2023-12-23T00:45:48.848Z,62.60
2023-12-23T00:48:16.944Z,62.36
2023-12-23T00:50:45.330Z,62.39
2023-12-23T00:53:13.318Z,62.41
2023-12-23T00:55:41.395Z,62.06
2023-12-23T00:58:09.438Z,62.33
2023-12-23T01:00:39.242Z,61.84
2023-12-23T01:03:07.354Z,62.33
2023-12-23T01:05:35.310Z,62.21
2023-12-23T01:08:03.466Z,62.07
2023-12-23T01:10:31.554Z,62.12
2023-12-23T01:12:59.635Z,61.94
2023-12-23T01:15:28.491Z,61.98
2023-12-23T01:17:56.610Z,61.65
2023-12-23T01:20:24.930Z,61.89
2023-12-23T01:22:52.974Z,61.78
2023-12-23T01:25:23.584Z,61.71
2023-12-23T01:27:51.943Z,61.16
2023-12-23T01:30:20.025Z,61.21
2023-12-23T01:32:47.997Z,61.20
2023-12-23T01:35:16.239Z,61.36
2023-12-23T01:37:46.637Z,61.41
2023-12-23T01:40:15.040Z,61.63
2023-12-23T01:42:43.640Z,61.43
2023-12-23T01:45:12.890Z,61.36
2023-12-23T01:47:43.368Z,61.30
2023-12-23T01:50:13.573Z,61.39
2023-12-23T01:52:42.785Z,61.42
2023-12-23T01:55:11.794Z,61.32
2023-12-23T01:57:41.130Z,61.42
2023-12-23T02:00:11.018Z,61.14
2023-12-23T02:02:42.621Z,61.40
2023-12-23T02:05:12.148Z,61.39
2023-12-23T02:07:43.138Z,61.42
2023-12-23T02:10:11.494Z,61.10
2023-12-23T02:12:48.113Z,61.11
2023-12-23T02:15:18.017Z,61.16
2023-12-23T02:17:46.199Z,60.96
2023-12-23T02:20:14.966Z,61.43
2023-12-23T02:22:43.117Z,61.15
2023-12-23T02:25:11.093Z,61.10
2023-12-23T02:27:46.633Z,61.25
2023-12-23T02:30:17.287Z,61.11
2023-12-23T02:32:46.774Z,60.90
2023-12-23T02:35:15.111Z,61.08
2023-12-23T02:37:43.199Z,60.93
2023-12-23T02:40:12.874Z,60.88
2023-12-23T02:42:40.838Z,61.01
2023-12-23T02:45:09.963Z,61.00
2023-12-23T02:47:38.328Z,61.06
2023-12-23T02:50:08.314Z,61.29
2023-12-23T02:52:36.562Z,61.14
2023-12-23T02:55:06.791Z,60.85
2023-12-23T02:57:36.479Z,61.07
2023-12-23T03:00:06.694Z,60.75
2023-12-23T03:02:34.741Z,61.14
2023-12-23T03:05:03.246Z,60.99
2023-12-23T03:07:31.296Z,61.17
2023-12-23T03:09:59.317Z,60.84
2023-12-23T03:12:27.566Z,60.67
2023-12-23T03:14:55.660Z,61.03
2023-12-23T03:17:26.000Z,60.72
2023-12-23T03:19:55.719Z,60.88
2023-12-23T03:22:23.823Z,60.94
2023-12-23T03:24:51.904Z,60.84
2023-12-23T03:27:20.422Z,60.66
2023-12-23T03:29:48.574Z,60.73
2023-12-23T03:32:17.739Z,60.70
2023-12-23T03:34:46.052Z,60.48
2023-12-23T03:37:14.822Z,60.45
2023-12-23T03:39:44.618Z,60.62
2023-12-23T03:42:12.725Z,60.32
2023-12-23T03:44:40.759Z,60.67
2023-12-23T03:47:09.986Z,60.69
2023-12-23T03:49:38.388Z,60.51
2023-12-23T03:52:06.431Z,60.44
2023-12-23T03:54:34.441Z,60.42
2023-12-23T03:57:02.845Z,60.66
2023-12-23T03:59:30.904Z,60.68
2023-12-23T04:01:59.559Z,60.95
2023-12-23T04:04:27.740Z,60.56
2023-12-23T04:06:55.932Z,60.52
2023-12-23T04:09:24.092Z,60.76
2023-12-23T04:11:52.605Z,60.71
2023-12-23T04:14:20.672Z,60.60
2023-12-23T04:16:48.870Z,60.39
2023-12-23T04:19:17.315Z,60.60
2023-12-23T04:21:45.313Z,60.83
2023-12-23T04:24:13.482Z,60.63
2023-12-23T04:26:41.476Z,60.77
2023-12-23T04:29:10.131Z,60.70
2023-12-23T04:31:38.407Z,60.88
2023-12-23T04:34:08.026Z,60.64
2023-12-23T04:36:36.225Z,60.73
2023-12-23T04:39:06.362Z,60.65
2023-12-23T04:41:34.851Z,60.71
2023-12-23T04:44:03.921Z,60.81
2023-12-23T04:46:32.941Z,60.83
2023-12-23T04:49:01.045Z,60.61
2023-12-23T04:51:32.107Z,60.77
2023-12-23T04:54:00.050Z,60.69
2023-12-23T04:56:28.292Z,60.77
2023-12-23T04:58:57.089Z,60.82
2023-12-23T05:01:26.192Z,61.07
2023-12-23T05:03:54.238Z,60.85
2023-12-23T05:06:22.405Z,61.05
2023-12-23T05:08:50.396Z,60.94
2023-12-23T05:11:18.677Z,61.11
2023-12-23T05:13:46.820Z,61.23
2023-12-23T05:16:14.979Z,61.09
2023-12-23T05:18:43.061Z,61.28
2023-12-23T05:21:11.204Z,60.98
2023-12-23T05:23:40.734Z,61.05
2023-12-23T05:26:09.574Z,61.16
2023-12-23T05:28:37.793Z,61.37
2023-12-23T05:31:06.069Z,61.31
2023-12-23T05:33:34.136Z,61.30
2023-12-23T05:36:02.214Z,61.25
2023-12-23T05:38:30.711Z,61.16
2023-12-23T05:40:58.827Z,61.22
2023-12-23T05:43:26.856Z,61.37
2023-12-23T05:45:54.895Z,61.42
2023-12-23T05:48:23.059Z,60.95
2023-12-23T05:50:51.110Z,61.09
2023-12-23T05:53:19.127Z,60.99
2023-12-23T05:55:47.697Z,61.04
2023-12-23T05:58:15.790Z,61.00
2023-12-23T06:00:43.818Z,60.85
2023-12-23T06:03:11.978Z,60.82
2023-12-23T06:05:40.101Z,61.13
2023-12-23T06:08:09.176Z,60.86
2023-12-23T06:10:47.402Z,60.89
2023-12-23T06:13:22.686Z,60.88
2023-12-23T06:15:50.630Z,60.79
2023-12-23T06:18:18.723Z,60.75
2023-12-23T06:20:46.817Z,60.84
2023-12-23T06:23:14.895Z,60.76
2023-12-23T06:25:42.991Z,61.00
2023-12-23T06:28:11.111Z,60.64
2023-12-23T06:30:39.118Z,60.65
2023-12-23T06:33:07.303Z,60.84
2023-12-23T06:35:35.587Z,60.69
2023-12-23T06:38:04.026Z,60.82
2023-12-23T06:40:32.608Z,60.68
2023-12-23T06:43:01.159Z,60.63
2023-12-23T06:45:49.099Z,60.65
2023-12-23T06:48:20.914Z,60.89
2023-12-23T06:50:49.384Z,60.85
2023-12-23T06:53:18.358Z,60.85
2023-12-23T06:55:46.696Z,60.70
2023-12-23T06:58:14.909Z,60.88
2023-12-23T07:00:43.513Z,60.68
2023-12-23T07:03:11.605Z,60.64
2023-12-23T07:05:39.751Z,60.86
2023-12-23T07:08:08.902Z,60.39
2023-12-23T07:10:36.971Z,60.66
2023-12-23T07:13:05.735Z,60.53
2023-12-23T07:15:33.736Z,60.86
2023-12-23T07:18:01.865Z,60.86
2023-12-23T07:20:30.804Z,60.73
2023-12-23T07:22:58.859Z,60.60
2023-12-23T07:25:26.859Z,60.83
2023-12-23T07:27:54.953Z,60.74
2023-12-23T07:30:22.971Z,60.57
2023-12-23T07:32:52.536Z,60.51
2023-12-23T07:35:22.140Z,60.76
2023-12-23T07:37:51.909Z,60.53
2023-12-23T07:40:20.261Z,60.54
2023-12-23T07:42:48.603Z,60.71
2023-12-23T07:45:17.061Z,60.41
2023-12-23T07:47:48.541Z,60.46
2023-12-23T07:50:20.679Z,60.43
2023-12-23T07:52:48.978Z,60.51
2023-12-23T07:55:17.324Z,60.40
2023-12-23T07:57:49.785Z,60.36
2023-12-23T08:00:19.619Z,60.23
2023-12-23T08:02:47.680Z,60.45
2023-12-23T08:05:17.311Z,60.37
2023-12-23T08:07:45.730Z,60.49
2023-12-23T08:10:17.856Z,60.38
2023-12-23T08:12:45.817Z,60.33
2023-12-23T08:15:14.033Z,60.34
2023-12-23T08:17:42.202Z,60.26
2023-12-23T08:20:11.798Z,60.36
2023-12-23T08:22:42.317Z,60.10
2023-12-23T08:25:15.558Z,60.07
2023-12-23T08:27:47.293Z,60.12
2023-12-23T08:30:16.312Z,60.09
2023-12-23T08:32:44.682Z,60.04
2023-12-23T08:35:14.855Z,60.17
2023-12-23T08:37:43.416Z,60.19
2023-12-23T08:40:13.041Z,59.76
2023-12-23T08:42:41.846Z,59.89
2023-12-23T08:45:10.856Z,59.90
2023-12-23T08:47:43.268Z,59.49
2023-12-23T08:50:12.254Z,59.93
2023-12-23T08:52:40.441Z,59.92
2023-12-23T08:55:09.924Z,59.79
2023-12-23T08:57:38.319Z,60.04
2023-12-23T09:00:09.955Z,60.12
2023-12-23T09:02:38.090Z,59.91
2023-12-23T09:05:08.135Z,60.14
2023-12-23T09:07:36.574Z,59.90
2023-12-23T09:10:08.951Z,59.83
2023-12-23T09:12:43.892Z,59.64
2023-12-23T09:15:12.146Z,60.06
2023-12-23T09:17:40.403Z,59.98
2023-12-23T09:20:11.328Z,60.00
2023-12-23T09:22:39.487Z,60.14
2023-12-23T09:25:08.493Z,59.90
2023-12-23T09:27:36.597Z,59.85
2023-12-23T09:30:07.328Z,60.08
2023-12-23T09:32:35.846Z,60.08
2023-12-23T09:35:06.261Z,60.13
2023-12-23T09:37:34.883Z,60.13
2023-12-23T09:40:08.930Z,59.88
2023-12-23T09:42:40.927Z,60.20
2023-12-23T09:45:13.670Z,60.03
2023-12-23T09:47:42.183Z,59.90
2023-12-23T09:50:10.938Z,60.17
2023-12-23T09:52:39.643Z,59.99
2023-12-23T09:55:12.284Z,59.96
2023-12-23T09:57:43.855Z,60.12
2023-12-23T10:00:15.139Z,60.14
2023-12-23T10:02:43.361Z,60.03
2023-12-23T10:05:11.837Z,60.20
2023-12-23T10:07:40.165Z,60.06
2023-12-23T10:10:11.164Z,60.25
2023-12-23T10:12:39.404Z,60.23
2023-12-23T10:15:08.227Z,60.26
2023-12-23T10:17:38.904Z,60.21
2023-12-23T10:20:11.526Z,60.72
2023-12-23T10:22:42.606Z,60.83
2023-12-23T10:25:10.726Z,61.42
2023-12-23T10:27:41.943Z,61.64
2023-12-23T10:30:13.057Z,61.56
2023-12-23T10:32:56.965Z,61.56
2023-12-23T10:35:28.202Z,61.96
2023-12-23T10:38:00.082Z,62.14
2023-12-23T10:40:29.893Z,62.17
2023-12-23T10:43:02.499Z,62.53
2023-12-23T10:45:34.271Z,62.41
2023-12-23T10:48:06.783Z,62.50
2023-12-23T10:50:36.582Z,62.29
2023-12-23T10:53:11.346Z,62.17
2023-12-23T10:55:40.552Z,62.11
2023-12-23T10:58:11.494Z,62.36
2023-12-23T11:00:44.537Z,62.11
2023-12-23T11:03:13.800Z,62.71
2023-12-23T11:05:43.247Z,63.03
2023-12-23T11:08:17.513Z,63.49
2023-12-23T11:10:48.151Z,63.48
2023-12-23T11:13:16.246Z,63.53
2023-12-23T11:15:44.836Z,63.88
2023-12-23T11:18:13.246Z,63.95
2023-12-23T11:20:55.184Z,64.04
2023-12-23T11:23:36.611Z,64.18
2023-12-23T11:26:26.071Z,64.40
2023-12-23T11:28:57.209Z,64.20
2023-12-23T11:31:25.913Z,64.37
2023-12-23T11:33:54.312Z,64.42
2023-12-23T11:36:23.413Z,64.71
2023-12-23T11:39:00.793Z,64.73
2023-12-23T11:41:30.490Z,64.58
2023-12-23T11:43:59.941Z,64.43
2023-12-23T11:46:34.948Z,63.81
2023-12-23T11:49:03.336Z,63.74
2023-12-23T11:51:32.500Z,63.75
2023-12-23T11:54:05.079Z,63.37
2023-12-23T11:56:33.332Z,63.08
2023-12-23T11:59:03.144Z,63.46
2023-12-23T12:01:33.914Z,63.24
2023-12-23T12:04:07.391Z,63.54
2023-12-23T12:06:38.701Z,63.92
2023-12-23T12:09:07.817Z,63.51
2023-12-23T12:11:36.321Z,63.14
2023-12-23T12:14:06.710Z,63.30
2023-12-23T12:16:40.779Z,62.92
2023-12-23T12:19:09.357Z,62.70
2023-12-23T12:22:37.656Z,62.32
2023-12-23T12:25:14.752Z,62.31
2023-12-23T12:27:46.852Z,62.32
2023-12-23T12:30:17.791Z,62.36
2023-12-23T12:32:51.515Z,62.47
2023-12-23T12:35:26.174Z,62.21
2023-12-23T12:38:05.173Z,62.47
2023-12-23T12:40:43.837Z,62.13
2023-12-23T12:43:17.203Z,62.49
2023-12-23T12:45:51.644Z,62.40
2023-12-23T12:48:24.422Z,62.24
2023-12-23T12:50:58.845Z,61.78
2023-12-23T12:53:32.235Z,61.89
2023-12-23T12:56:13.018Z,61.81
2023-12-23T12:58:47.822Z,61.69
2023-12-23T13:01:19.100Z,61.62
2023-12-23T13:03:50.382Z,61.55
2023-12-23T13:06:21.378Z,61.06
2023-12-23T13:08:53.702Z,61.08
2023-12-23T13:11:28.501Z,61.00
2023-12-23T13:13:59.675Z,60.75
2023-12-23T13:16:30.901Z,61.07
2023-12-23T13:19:02.161Z,61.27
2023-12-23T13:21:33.506Z,61.00
2023-12-23T13:24:04.700Z,60.71
2023-12-23T13:26:35.565Z,60.94
2023-12-23T13:29:07.479Z,60.90
2023-12-23T13:31:38.714Z,60.73
2023-12-23T13:34:12.000Z,60.76
2023-12-23T13:36:43.310Z,60.58
2023-12-23T13:39:14.400Z,60.31
2023-12-23T13:41:46.693Z,60.31
2023-12-23T13:44:17.897Z,59.99
2023-12-23T13:46:50.402Z,60.04
2023-12-23T13:49:21.643Z,60.08
2023-12-23T13:52:03.371Z,60.16
2023-12-23T13:54:39.456Z,60.06
2023-12-23T13:57:10.879Z,60.05
2023-12-23T13:59:50.393Z,59.97
2023-12-23T14:02:48.729Z,59.95
2023-12-23T14:05:39.007Z,60.17
2023-12-23T14:08:39.946Z,60.17
2023-12-23T14:11:52.425Z,60.17
2023-12-23T14:19:01.985Z,60.11
2023-12-23T14:21:38.655Z,59.93
2023-12-23T14:24:18.313Z,60.18
2023-12-23T14:27:16.189Z,60.01
2023-12-23T14:29:49.817Z,60.00
2023-12-23T14:32:21.156Z,60.28
2023-12-23T14:34:52.360Z,60.42
2023-12-23T14:37:24.787Z,60.48
2023-12-23T14:39:58.849Z,60.40
2023-12-23T14:42:30.814Z,60.33
2023-12-23T14:45:06.584Z,60.57
2023-12-23T14:47:37.461Z,60.74
2023-12-23T14:50:11.481Z,60.58
2023-12-23T14:52:43.664Z,60.86
2023-12-23T14:55:14.675Z,60.98
2023-12-23T14:57:46.014Z,60.70
2023-12-23T15:00:25.666Z,60.93
2023-12-23T15:06:54.943Z,60.64
2023-12-23T15:09:32.258Z,60.59
2023-12-23T15:12:04.508Z,60.77
2023-12-23T15:14:36.109Z,60.64
2023-12-23T15:17:08.415Z,60.83
2023-12-23T15:19:40.101Z,60.99
2023-12-23T15:22:11.479Z,60.91
2023-12-23T15:24:42.377Z,60.74
2023-12-23T15:27:13.373Z,60.82
2023-12-23T15:29:44.743Z,61.08
2023-12-23T15:32:15.950Z,60.74
2023-12-23T15:34:47.068Z,60.87
2023-12-23T15:37:18.200Z,61.02
2023-12-23T15:39:49.627Z,60.84
2023-12-23T15:42:21.393Z,61.16
2023-12-23T15:44:52.701Z,61.16
2023-12-23T15:47:25.035Z,61.24
2023-12-23T15:50:26.816Z,61.09
2023-12-23T15:53:23.116Z,61.26
2023-12-23T15:55:57.708Z,61.24
2023-12-23T15:59:15.771Z,61.68
2023-12-23T16:01:46.841Z,61.80
2023-12-23T16:04:17.840Z,61.70
2023-12-23T16:06:48.971Z,61.90
2023-12-23T16:28:38.946Z,61.89
2023-12-23T16:31:21.517Z,61.70
2023-12-23T16:33:54.683Z,62.12
2023-12-23T16:36:25.850Z,62.06
2023-12-23T16:38:56.894Z,62.35
2023-12-23T16:41:28.012Z,62.36
2023-12-23T16:43:59.506Z,62.40
2023-12-23T16:46:30.515Z,62.71
2023-12-23T16:49:01.502Z,62.97
2023-12-23T16:51:32.396Z,63.01
2023-12-23T16:54:04.026Z,62.91
2023-12-23T16:56:37.652Z,63.10
2023-12-23T16:59:08.547Z,63.33
2023-12-23T17:01:40.195Z,63.36
2023-12-23T17:04:11.277Z,63.62
2023-12-23T17:06:45.838Z,63.77
2023-12-23T17:09:16.950Z,63.69
2023-12-23T17:11:50.264Z,63.94
2023-12-23T17:14:23.708Z,63.80
2023-12-23T17:16:57.616Z,64.01
2023-12-23T17:19:29.233Z,64.10
2023-12-23T17:22:00.288Z,64.20
2023-12-23T17:24:36.764Z,64.32
2023-12-23T17:27:16.626Z,64.26
2023-12-23T17:29:49.375Z,64.45
2023-12-23T17:32:27.415Z,64.55
2023-12-23T17:34:58.479Z,64.46
2023-12-23T17:37:30.792Z,64.66
2023-12-23T17:40:01.792Z,64.76
2023-12-23T17:42:32.748Z,64.83
2023-12-23T17:45:04.010Z,64.89
2023-12-23T17:47:36.844Z,64.84
2023-12-23T17:50:09.837Z,64.71
2023-12-23T17:52:41.675Z,64.79
2023-12-23T17:55:12.956Z,64.94
2023-12-23T17:57:44.446Z,64.95
2023-12-23T18:00:18.080Z,64.97
2023-12-23T18:03:00.044Z,64.95
2023-12-23T18:05:34.030Z,65.07
2023-12-23T18:08:06.478Z,65.26
2023-12-23T18:10:37.579Z,65.58
2023-12-23T18:13:12.155Z,65.45
2023-12-23T18:15:42.988Z,65.48
2023-12-23T18:18:13.806Z,65.26
2023-12-23T18:20:44.797Z,65.35
2023-12-23T18:23:17.796Z,65.38
2023-12-23T18:25:48.765Z,65.33
2023-12-23T18:28:20.061Z,65.37
2023-12-23T18:30:51.151Z,65.37
2023-12-23T18:33:30.175Z,65.50
2023-12-23T18:36:04.657Z,65.48
2023-12-23T18:38:36.154Z,65.48
2023-12-23T18:41:09.359Z,65.72
2023-12-23T18:43:40.679Z,65.79
2023-12-23T18:46:14.349Z,65.87
2023-12-23T18:48:46.168Z,66.01
2023-12-23T18:51:17.393Z,65.88
2023-12-23T18:53:48.770Z,65.76
2023-12-23T18:56:19.662Z,65.86
2023-12-23T18:58:50.468Z,65.90
2023-12-23T19:01:22.821Z,66.01
2023-12-23T19:03:55.711Z,66.01
2023-12-23T19:06:26.853Z,66.12
2023-12-23T19:08:57.730Z,66.04
2023-12-23T19:11:29.009Z,66.22
2023-12-23T19:14:00.360Z,66.19
2023-12-23T19:16:33.469Z,66.33
2023-12-23T19:19:05.705Z,66.35
2023-12-23T19:21:42.620Z,66.29
2023-12-23T19:24:14.319Z,66.31
2023-12-23T19:26:45.847Z,66.58
2023-12-23T19:29:17.115Z,66.62
2023-12-23T19:31:48.694Z,66.70
2023-12-23T19:34:21.734Z,66.67
2023-12-23T19:36:53.077Z,66.74
2023-12-23T19:39:26.506Z,66.78
2023-12-23T19:41:57.973Z,66.72
2023-12-23T19:44:32.179Z,66.79
2023-12-23T19:47:03.831Z,66.99
2023-12-23T19:49:35.238Z,67.08
2023-12-23T19:52:40.890Z,67.30
2023-12-23T19:55:13.957Z,67.32
2023-12-23T19:57:51.471Z,67.35
2023-12-23T20:00:41.288Z,67.31
2023-12-23T20:03:16.721Z,67.51
2023-12-23T20:05:52.777Z,67.47
2023-12-23T20:08:54.537Z,67.46
2023-12-23T20:11:29.815Z,67.47
2023-12-23T20:14:02.648Z,67.65
2023-12-23T20:16:36.997Z,67.62
2023-12-23T20:19:09.403Z,67.71
2023-12-23T20:21:43.381Z,67.78
2023-12-23T20:24:25.409Z,67.78
2023-12-23T20:27:06.637Z,67.76
2023-12-23T20:29:37.953Z,67.94
2023-12-23T20:32:11.884Z,68.00
2023-12-23T20:35:06.274Z,68.05
2023-12-23T20:38:36.871Z,68.11
2023-12-23T20:44:46.447Z,68.06
2023-12-23T20:47:25.731Z,68.05
2023-12-23T20:52:45.561Z,68.26
2023-12-23T20:55:26.101Z,68.46
2023-12-23T20:58:04.352Z,68.38
2023-12-23T21:00:47.817Z,68.44
2023-12-23T21:03:19.620Z,68.55
2023-12-23T21:06:01.787Z,68.56
2023-12-23T21:12:48.408Z,68.71
2023-12-23T21:15:49.654Z,68.61
2023-12-23T21:18:37.023Z,68.57
2023-12-23T21:21:58.822Z,68.62
2023-12-23T21:24:32.225Z,68.62
2023-12-23T21:27:14.570Z,68.65
2023-12-23T21:30:02.338Z,68.76
2023-12-23T21:32:34.773Z,68.69
2023-12-23T21:35:24.458Z,68.79
2023-12-23T21:37:55.534Z,68.85
2023-12-23T21:40:26.493Z,68.85
2023-12-23T21:42:58.547Z,68.78
2023-12-23T21:45:31.933Z,69.03
2023-12-23T21:48:05.610Z,69.06
2023-12-23T21:50:38.466Z,69.20
2023-12-23T21:53:12.849Z,69.21
2023-12-23T21:55:44.585Z,69.18
2023-12-23T21:58:16.026Z,69.33
2023-12-23T22:00:49.070Z,69.27
2023-12-23T22:03:20.716Z,69.47
2023-12-23T22:05:51.848Z,69.60
2023-12-23T22:08:23.140Z,69.66
2023-12-23T22:10:56.176Z,69.72
2023-12-23T22:13:27.203Z,69.64
2023-12-23T22:15:58.269Z,69.86
2023-12-23T22:18:29.599Z,69.96
2023-12-23T22:21:00.444Z,69.98
2023-12-23T22:23:33.036Z,70.03
2023-12-23T22:26:04.393Z,69.98
2023-12-23T22:28:35.757Z,70.19
2023-12-23T22:31:07.617Z,70.16
2023-12-23T22:33:40.071Z,70.13
2023-12-23T22:36:12.412Z,70.31
2023-12-23T22:38:50.486Z,70.33
2023-12-23T22:41:21.806Z,70.33
2023-12-23T22:44:03.053Z,70.19
2023-12-23T22:46:40.112Z,70.21
2023-12-23T22:49:11.504Z,70.15
2023-12-23T22:51:43.997Z,70.13
2023-12-23T22:54:16.904Z,70.25
2023-12-23T22:56:47.882Z,70.09
2023-12-23T22:59:18.747Z,69.96
2023-12-23T23:01:49.799Z,70.01
2023-12-23T23:04:20.880Z,70.09
2023-12-23T23:06:51.813Z,69.58
2023-12-23T23:09:23.094Z,69.87
2023-12-23T23:11:54.234Z,70.09
2023-12-23T23:14:29.138Z,69.99
2023-12-23T23:17:00.108Z,69.62
2023-12-23T23:19:31.506Z,69.77
2023-12-23T23:22:02.501Z,69.94
2023-12-23T23:24:33.337Z,69.77
2023-12-23T23:27:04.256Z,69.58
2023-12-23T23:29:36.511Z,69.71
2023-12-23T23:32:07.956Z,69.75
2023-12-23T23:34:38.848Z,69.62
2023-12-23T23:37:10.283Z,69.58
2023-12-23T23:40:24.148Z,69.54
2023-12-23T23:42:55.601Z,69.36
2023-12-23T23:45:26.708Z,69.52
2023-12-23T23:47:57.682Z,69.38
2023-12-23T23:50:28.619Z,69.32
2023-12-23T23:52:59.652Z,69.46
2023-12-23T23:55:30.670Z,69.53
2023-12-23T23:58:01.739Z,69.32
